createdAt,value
2023-04-12T00:03:26.967Z,97.48
2023-04-12T00:08:33.271Z,97.13
2023-04-12T00:13:36.076Z,97.43
2023-04-12T00:18:38.857Z,97.35
2023-04-12T00:23:41.582Z,98.06
2023-04-12T00:28:45.055Z,98.30
2023-04-12T00:33:47.911Z,98.77
2023-04-12T00:38:50.640Z,99.26
2023-04-12T00:43:53.372Z,99.67
2023-04-12T00:48:57.841Z,99.24
2023-04-12T00:54:01.659Z,99.47
2023-04-12T00:59:04.459Z,99.47
2023-04-12T01:04:07.824Z,99.96
2023-04-12T01:09:53.380Z,100.00
2023-04-12T01:15:14.793Z,100.00
2023-04-12T01:20:23.756Z,100.00
2023-04-12T01:25:29.248Z,100.00
2023-04-12T01:30:33.587Z,100.00
2023-04-12T01:35:37.812Z,100.00
2023-04-12T01:40:42.807Z,100.00
2023-04-12T01:45:46.903Z,100.00
2023-04-12T01:51:12.712Z,100.00
2023-04-12T01:56:18.148Z,100.00
2023-04-12T02:01:22.653Z,100.00
2023-04-12T02:06:26.801Z,100.00
2023-04-12T02:11:30.004Z,100.00
2023-04-12T02:16:34.411Z,100.00
2023-04-12T02:21:42.423Z,100.00
2023-04-12T02:26:46.040Z,100.00
2023-04-12T02:31:48.748Z,100.00
2023-04-12T02:36:51.490Z,100.00
2023-04-12T02:41:54.225Z,100.00
2023-04-12T02:46:57.046Z,100.00
2023-04-12T02:51:59.725Z,100.00
2023-04-12T02:57:02.488Z,100.00
2023-04-12T03:02:05.594Z,100.00
2023-04-12T03:07:08.959Z,100.00
2023-04-12T03:12:11.779Z,100.00
2023-04-12T03:17:14.673Z,100.00
2023-04-12T03:22:17.367Z,100.00
2023-04-12T03:27:20.174Z,100.00
2023-04-12T03:32:23.016Z,100.00
2023-04-12T03:37:26.410Z,100.00
2023-04-12T03:42:33.613Z,100.00
2023-04-12T03:47:37.325Z,100.00
2023-04-12T03:52:40.330Z,100.00
2023-04-12T03:57:43.137Z,100.00
2023-04-12T04:02:47.537Z,100.00
2023-04-12T04:07:51.284Z,100.00
2023-04-12T04:12:54.533Z,100.00
2023-04-12T04:17:57.318Z,100.00
2023-04-12T04:23:00.134Z,100.00
2023-04-12T04:28:02.927Z,100.00
2023-04-12T04:33:07.279Z,100.00
2023-04-12T04:38:10.472Z,100.00
2023-04-12T04:43:14.108Z,100.00
2023-04-12T04:48:18.894Z,100.00
2023-04-12T04:53:22.520Z,100.00
2023-04-12T04:58:25.803Z,100.00
2023-04-12T05:03:30.286Z,100.00
2023-04-12T05:08:33.518Z,100.00
2023-04-12T05:13:36.308Z,100.00
2023-04-12T05:18:39.054Z,100.00
2023-04-12T05:23:45.641Z,100.00
2023-04-12T05:28:48.418Z,99.95
2023-04-12T05:33:51.060Z,100.00
2023-04-12T05:38:53.948Z,99.08
2023-04-12T05:43:56.616Z,97.92
2023-04-12T05:48:59.536Z,96.71
2023-04-12T05:54:06.306Z,96.38
2023-04-12T05:59:11.168Z,96.20
2023-04-12T06:04:15.920Z,94.73
2023-04-12T06:09:19.150Z,92.77
2023-04-12T06:14:21.927Z,90.39
2023-04-12T06:19:24.764Z,88.89
2023-04-12T06:24:28.164Z,87.28
2023-04-12T06:29:30.974Z,87.28
2023-04-12T06:34:34.791Z,87.13
2023-04-12T06:39:37.778Z,85.65
2023-04-12T06:44:40.677Z,83.30
2023-04-12T06:49:43.474Z,78.46
2023-04-12T06:54:46.611Z,77.66
2023-04-12T06:59:49.451Z,74.89
2023-04-12T07:04:54.188Z,72.99
2023-04-12T07:09:57.354Z,74.78
2023-04-12T07:15:00.562Z,77.11
2023-04-12T07:20:03.696Z,72.14
2023-04-12T07:25:10.365Z,65.04
2023-04-12T07:30:13.684Z,63.79
2023-04-12T07:35:16.607Z,63.00
2023-04-12T07:40:19.527Z,60.83
2023-04-12T07:45:25.158Z,61.94
2023-04-12T07:50:28.102Z,60.18
2023-04-12T07:55:30.972Z,58.63
2023-04-12T08:00:34.583Z,56.06
2023-04-12T08:05:37.640Z,53.79
2023-04-12T08:10:40.943Z,50.57
2023-04-12T08:15:43.997Z,44.00
2023-04-12T08:20:47.244Z,40.05
2023-04-12T08:25:50.136Z,37.30
2023-04-12T08:30:52.894Z,35.69
2023-04-12T08:35:56.265Z,35.46
2023-04-12T08:40:59.406Z,34.75
2023-04-12T08:46:02.240Z,32.75
2023-04-12T08:51:06.678Z,30.48
2023-04-12T08:56:13.881Z,27.92
2023-04-12T09:01:18.721Z,25.53
2023-04-12T09:06:21.670Z,24.21
2023-04-12T09:11:27.351Z,23.46
2023-04-12T09:16:41.998Z,24.05
2023-04-12T09:21:56.343Z,22.81
2023-04-12T09:27:06.875Z,22.18
2023-04-12T09:32:09.637Z,22.54
2023-04-12T09:37:14.917Z,22.41
2023-04-12T09:42:29.960Z,22.53
2023-04-12T09:47:39.728Z,22.37
2023-04-12T09:52:43.843Z,22.16
2023-04-12T09:57:49.652Z,21.33
2023-04-12T10:02:57.028Z,21.74
2023-04-12T10:08:00.350Z,21.61
2023-04-12T10:13:03.564Z,20.56
2023-04-12T10:18:07.410Z,20.47
2023-04-12T10:23:10.989Z,21.43
2023-04-12T10:28:19.602Z,20.80
2023-04-12T10:33:27.824Z,20.40
2023-04-12T10:38:37.499Z,21.00
2023-04-12T10:43:44.809Z,21.90
2023-04-12T10:48:54.306Z,21.29
2023-04-12T10:54:09.736Z,20.79
2023-04-12T10:59:13.616Z,21.51
2023-04-12T11:04:21.984Z,21.96
2023-04-12T11:09:35.458Z,21.74
2023-04-12T11:14:39.303Z,21.19
2023-04-12T11:19:52.549Z,20.54
2023-04-12T11:24:57.440Z,21.02
2023-04-12T11:30:02.229Z,21.29
2023-04-12T11:35:06.289Z,21.85
2023-04-12T11:40:09.989Z,22.93
2023-04-12T11:45:18.840Z,24.80
2023-04-12T11:50:30.152Z,24.50
2023-04-12T11:55:32.964Z,24.19
2023-04-12T12:00:36.392Z,24.04
2023-04-12T12:05:41.307Z,24.21
2023-04-12T12:10:59.927Z,24.73
2023-04-12T12:16:08.606Z,25.16
2023-04-12T12:21:15.065Z,25.26
2023-04-12T12:26:25.398Z,25.52
2023-04-12T12:31:29.376Z,25.40
2023-04-12T12:36:37.562Z,25.19
2023-04-12T12:41:41.298Z,25.70
2023-04-12T12:46:55.322Z,26.13
2023-04-12T12:52:03.497Z,26.68
2023-04-12T12:57:06.194Z,26.93
2023-04-12T13:02:09.173Z,26.71
2023-04-12T13:07:12.185Z,26.65
2023-04-12T13:12:16.129Z,26.57
2023-04-12T13:17:19.012Z,27.18
2023-04-12T13:22:21.850Z,27.64
2023-04-12T13:27:24.634Z,29.27
2023-04-12T13:32:27.505Z,31.11
2023-04-12T13:37:30.719Z,33.98
2023-04-12T13:42:33.590Z,36.82
2023-04-12T13:47:36.628Z,38.55
2023-04-12T13:52:40.036Z,38.87
2023-04-12T13:57:43.380Z,40.11
2023-04-12T14:02:46.290Z,40.35
2023-04-12T14:07:50.116Z,40.30
2023-04-12T14:12:52.810Z,40.71
2023-04-12T14:17:56.067Z,39.17
2023-04-12T14:22:59.344Z,37.76
2023-04-12T14:28:02.055Z,36.57
2023-04-12T14:33:04.868Z,35.72
2023-04-12T14:38:09.163Z,36.44
2023-04-12T14:43:11.981Z,36.85
2023-04-12T14:48:14.695Z,36.61
2023-04-12T14:53:18.863Z,37.38
2023-04-12T14:58:21.824Z,39.24
2023-04-12T15:03:26.991Z,39.92
2023-04-12T15:08:29.934Z,40.45
2023-04-12T15:13:34.537Z,41.29
2023-04-12T15:18:39.480Z,42.30
2023-04-12T15:23:42.272Z,43.08
2023-04-12T15:28:45.022Z,44.51
2023-04-12T15:33:49.793Z,44.99
2023-04-12T15:38:54.514Z,45.16
2023-04-12T15:43:57.725Z,45.72
2023-04-12T15:49:01.657Z,46.50
2023-04-12T15:54:04.409Z,47.29
2023-04-12T15:59:09.196Z,48.49
2023-04-12T16:04:13.113Z,49.79
2023-04-12T16:09:16.802Z,51.31
2023-04-12T16:14:19.610Z,52.67
2023-04-12T16:19:23.008Z,54.43
2023-04-12T16:24:25.835Z,55.83
2023-04-12T16:29:29.139Z,56.69
2023-04-12T16:34:31.867Z,57.43
2023-04-12T16:39:35.359Z,57.60
2023-04-12T16:44:38.687Z,58.45
2023-04-12T16:49:41.837Z,59.13
2023-04-12T16:54:44.824Z,59.45
2023-04-12T16:59:47.697Z,59.80
2023-04-12T17:04:51.294Z,60.17
2023-04-12T17:09:55.052Z,60.65
2023-04-12T17:14:58.078Z,61.94
2023-04-12T17:20:01.258Z,62.79
2023-04-12T17:25:05.731Z,63.99
2023-04-12T17:30:12.401Z,64.38
2023-04-12T17:35:16.141Z,64.89
2023-04-12T17:40:19.335Z,65.90
2023-04-12T17:45:23.654Z,66.68
2023-04-12T17:50:26.765Z,67.48
2023-04-12T17:55:29.480Z,68.01
2023-04-12T18:00:32.256Z,68.56
2023-04-12T18:05:35.479Z,68.95
2023-04-12T18:10:38.201Z,69.21
2023-04-12T18:15:40.934Z,69.11
2023-04-12T18:20:43.769Z,69.43
2023-04-12T18:25:46.695Z,69.84
2023-04-12T18:30:49.702Z,70.11
2023-04-12T18:35:53.008Z,70.55
2023-04-12T18:40:55.956Z,70.91
2023-04-12T18:45:59.281Z,71.62
2023-04-12T18:51:02.031Z,72.08
2023-04-12T18:56:12.248Z,72.08
2023-04-12T19:01:15.601Z,72.80
2023-04-12T19:06:18.673Z,74.58
2023-04-12T19:11:21.733Z,75.75
2023-04-12T19:16:24.777Z,77.00
2023-04-12T19:21:31.980Z,77.13
2023-04-12T19:26:40.086Z,78.32
2023-04-12T19:31:47.646Z,79.89
2023-04-12T19:36:50.892Z,80.85
2023-04-12T19:41:53.675Z,81.69
2023-04-12T19:46:56.744Z,81.65
2023-04-12T19:51:59.935Z,81.53
2023-04-12T19:57:05.278Z,82.20
2023-04-12T20:02:08.229Z,82.10
2023-04-12T20:07:11.710Z,82.18
2023-04-12T20:12:16.958Z,82.77
2023-04-12T20:17:20.299Z,83.56
2023-04-12T20:22:23.415Z,84.92
2023-04-12T20:27:27.242Z,85.50
2023-04-12T20:32:30.280Z,86.74
2023-04-12T20:37:33.955Z,87.38
2023-04-12T20:42:37.272Z,87.73
2023-04-12T20:47:40.117Z,88.71
2023-04-12T20:52:43.065Z,89.20
2023-04-12T20:57:45.966Z,88.74
2023-04-12T21:02:48.974Z,88.93
2023-04-12T21:07:51.931Z,89.40
2023-04-12T21:12:54.960Z,89.12
2023-04-12T21:17:58.453Z,88.77
2023-04-12T21:23:04.184Z,89.78
2023-04-12T21:28:08.106Z,90.38
2023-04-12T21:33:14.512Z,91.08
2023-04-12T21:38:18.177Z,92.43
2023-04-12T21:43:20.925Z,93.32
2023-04-12T21:48:23.714Z,93.59
2023-04-12T21:53:27.329Z,93.42
2023-04-12T21:58:30.114Z,93.18
2023-04-12T22:03:32.963Z,92.86
2023-04-12T22:08:35.844Z,92.61
2023-04-12T22:13:46.231Z,92.52
2023-04-12T22:18:50.361Z,92.43
2023-04-12T22:23:55.342Z,92.11
2023-04-12T22:28:58.331Z,91.89
2023-04-12T22:34:01.636Z,92.09
2023-04-12T22:39:04.937Z,92.29
2023-04-12T22:44:07.996Z,91.63
2023-04-12T22:49:10.847Z,91.87
2023-04-12T22:54:13.584Z,91.96
2023-04-12T22:59:20.223Z,92.43
2023-04-12T23:04:23.045Z,92.98
2023-04-12T23:09:25.744Z,93.68
2023-04-12T23:14:29.874Z,93.64
2023-04-12T23:19:33.276Z,94.06
2023-04-12T23:24:37.132Z,95.48
2023-04-12T23:29:40.943Z,96.90
2023-04-12T23:34:44.363Z,97.45
2023-04-12T23:39:47.033Z,98.39
2023-04-12T23:44:49.771Z,99.07
2023-04-12T23:49:52.668Z,99.95
2023-04-12T23:54:55.380Z,100.00
2023-04-12T23:59:58.195Z,100.00
